sensor_id;sensor_type;location;lat;lon;timestamp;P1;durP1;ratioP1;P2;durP2;ratioP2
41101;SDS011;26845;50.190;19.178;2022-09-27T06:55:21;9.43;;;7.10;;
41101;SDS011;26845;50.190;19.178;2022-09-27T06:57:46;8.35;;;7.25;;
41101;SDS011;26845;50.190;19.178;2022-09-27T07:00:31;12.33;;;7.72;;
41101;SDS011;26845;50.190;19.178;2022-09-27T07:02:57;10.53;;;8.33;;
41101;SDS011;26845;50.190;19.178;2022-09-27T07:05:30;9.73;;;7.58;;
41101;SDS011;26845;50.190;19.178;2022-09-27T07:07:57;8.13;;;7.05;;
41101;SDS011;26845;50.190;19.178;2022-09-27T07:10:24;8.88;;;7.12;;
41101;SDS011;26845;50.190;19.178;2022-09-27T07:12:52;10.23;;;8.28;;
41101;SDS011;26845;50.190;19.178;2022-09-27T07:15:23;9.85;;;7.75;;
41101;SDS011;26845;50.190;19.178;2022-09-27T07:17:55;8.53;;;7.55;;
41101;SDS011;26845;50.190;19.178;2022-09-27T07:20:23;8.70;;;7.08;;
41101;SDS011;26845;50.190;19.178;2022-09-27T07:22:51;8.53;;;6.92;;
41101;SDS011;26845;50.190;19.178;2022-09-27T07:25:18;7.83;;;7.03;;
41101;SDS011;26845;50.190;19.178;2022-09-27T07:27:45;7.80;;;7.00;;
41101;SDS011;26845;50.190;19.178;2022-09-27T07:30:11;7.05;;;6.35;;
41101;SDS011;26845;50.190;19.178;2022-09-27T07:32:39;7.40;;;6.58;;
41101;SDS011;26845;50.190;19.178;2022-09-27T07:35:08;8.70;;;6.85;;
41101;SDS011;26845;50.190;19.178;2022-09-27T07:37:35;8.63;;;5.83;;
41101;SDS011;26845;50.190;19.178;2022-09-27T07:40:03;8.70;;;6.92;;
41101;SDS011;26845;50.190;19.178;2022-09-27T07:42:33;8.95;;;6.60;;
41101;SDS011;26845;50.190;19.178;2022-09-27T07:45:05;8.90;;;6.58;;
41101;SDS011;26845;50.190;19.178;2022-09-27T07:47:33;9.40;;;7.12;;
41101;SDS011;26845;50.190;19.178;2022-09-27T07:50:00;9.18;;;6.92;;
41101;SDS011;26845;50.190;19.178;2022-09-27T07:52:26;9.20;;;6.20;;
41101;SDS011;26845;50.190;19.178;2022-09-27T07:54:51;9.88;;;6.58;;
41101;SDS011;26845;50.190;19.178;2022-09-27T07:57:20;7.25;;;5.75;;
41101;SDS011;26845;50.190;19.178;2022-09-27T07:59:47;8.90;;;6.03;;
41101;SDS011;26845;50.190;19.178;2022-09-27T08:02:16;9.38;;;5.72;;
41101;SDS011;26845;50.190;19.178;2022-09-27T08:04:42;7.72;;;5.78;;
41101;SDS011;26845;50.190;19.178;2022-09-27T08:07:08;8.10;;;5.42;;
41101;SDS011;26845;50.190;19.178;2022-09-27T08:09:35;6.70;;;5.40;;
41101;SDS011;26845;50.190;19.178;2022-09-27T08:12:01;6.47;;;5.30;;
41101;SDS011;26845;50.190;19.178;2022-09-27T08:14:28;5.95;;;5.35;;
41101;SDS011;26845;50.190;19.178;2022-09-27T08:16:55;7.53;;;5.55;;
41101;SDS011;26845;50.190;19.178;2022-09-27T08:19:21;6.28;;;4.67;;
41101;SDS011;26845;50.190;19.178;2022-09-27T08:21:47;6.05;;;4.85;;
41101;SDS011;26845;50.190;19.178;2022-09-27T08:24:13;5.58;;;4.97;;
41101;SDS011;26845;50.190;19.178;2022-09-27T08:26:39;6.75;;;4.83;;
41101;SDS011;26845;50.190;19.178;2022-09-27T08:29:05;5.20;;;4.70;;
41101;SDS011;26845;50.190;19.178;2022-09-27T08:31:35;8.18;;;5.33;;
41101;SDS011;26845;50.190;19.178;2022-09-27T08:34:03;5.78;;;4.33;;
41101;SDS011;26845;50.190;19.178;2022-09-27T08:36:32;5.12;;;3.83;;
41101;SDS011;26845;50.190;19.178;2022-09-27T08:39:01;4.78;;;3.65;;
41101;SDS011;26845;50.190;19.178;2022-09-27T08:47:34;4.28;;;3.87;;
41101;SDS011;26845;50.190;19.178;2022-09-27T08:50:13;4.17;;;3.75;;
41101;SDS011;26845;50.190;19.178;2022-09-27T08:55:44;4.05;;;3.50;;
41101;SDS011;26845;50.190;19.178;2022-09-27T08:58:27;4.25;;;3.65;;
41101;SDS011;26845;50.190;19.178;2022-09-27T09:01:13;3.47;;;3.17;;
41101;SDS011;26845;50.190;19.178;2022-09-27T09:03:54;4.30;;;3.45;;
41101;SDS011;26845;50.190;19.178;2022-09-27T09:18:13;3.98;;;2.98;;
41101;SDS011;26845;50.190;19.178;2022-09-27T09:23:49;4.50;;;3.33;;
41101;SDS011;26845;50.190;19.178;2022-09-27T09:29:11;4.20;;;3.33;;
41101;SDS011;26845;50.190;19.178;2022-09-27T09:35:10;2.72;;;2.52;;
41101;SDS011;26845;50.190;19.178;2022-09-27T09:37:40;2.47;;;2.30;;
41101;SDS011;26845;50.190;19.178;2022-09-27T09:40:16;3.42;;;3.12;;
41101;SDS011;26845;50.190;19.178;2022-09-27T09:42:56;3.72;;;2.17;;
41101;SDS011;26845;50.190;19.178;2022-09-27T09:45:57;3.83;;;2.65;;
41101;SDS011;26845;50.190;19.178;2022-09-27T09:48:30;2.87;;;2.62;;
41101;SDS011;26845;50.190;19.178;2022-09-27T09:51:03;2.52;;;2.33;;
41101;SDS011;26845;50.190;19.178;2022-09-27T09:53:41;3.45;;;2.10;;
41101;SDS011;26845;50.190;19.178;2022-09-27T09:56:24;2.22;;;1.95;;
41101;SDS011;26845;50.190;19.178;2022-09-27T10:01:29;3.17;;;2.35;;
41101;SDS011;26845;50.190;19.178;2022-09-27T10:04:22;3.67;;;2.40;;
41101;SDS011;26845;50.190;19.178;2022-09-27T10:06:51;2.87;;;2.65;;
41101;SDS011;26845;50.190;19.178;2022-09-27T10:09:21;2.05;;;1.90;;
41101;SDS011;26845;50.190;19.178;2022-09-27T10:11:50;4.30;;;3.02;;
41101;SDS011;26845;50.190;19.178;2022-09-27T10:14:17;3.10;;;2.80;;
41101;SDS011;26845;50.190;19.178;2022-09-27T10:16:52;4.60;;;2.63;;
41101;SDS011;26845;50.190;19.178;2022-09-27T10:19:22;2.77;;;2.52;;
41101;SDS011;26845;50.190;19.178;2022-09-27T10:21:57;3.15;;;2.50;;
41101;SDS011;26845;50.190;19.178;2022-09-27T10:24:59;3.02;;;2.58;;
41101;SDS011;26845;50.190;19.178;2022-09-27T10:27:40;2.62;;;2.42;;
41101;SDS011;26845;50.190;19.178;2022-09-27T10:30:22;3.17;;;2.67;;
41101;SDS011;26845;50.190;19.178;2022-09-27T10:33:03;3.00;;;2.80;;
41101;SDS011;26845;50.190;19.178;2022-09-27T10:35:43;4.65;;;2.72;;
41101;SDS011;26845;50.190;19.178;2022-09-27T10:38:21;2.98;;;2.75;;
41101;SDS011;26845;50.190;19.178;2022-09-27T10:40:55;3.58;;;2.83;;
41101;SDS011;26845;50.190;19.178;2022-09-27T10:43:24;2.90;;;2.40;;
41101;SDS011;26845;50.190;19.178;2022-09-27T10:46:08;4.20;;;2.83;;
41101;SDS011;26845;50.190;19.178;2022-09-27T10:51:51;2.30;;;2.10;;
41101;SDS011;26845;50.190;19.178;2022-09-27T10:54:19;2.95;;;1.98;;
41101;SDS011;26845;50.190;19.178;2022-09-27T10:56:55;3.12;;;2.58;;
41101;SDS011;26845;50.190;19.178;2022-09-27T10:59:25;2.08;;;1.98;;
41101;SDS011;26845;50.190;19.178;2022-09-27T11:01:55;2.30;;;2.08;;
41101;SDS011;26845;50.190;19.178;2022-09-27T11:04:34;2.45;;;2.25;;
41101;SDS011;26845;50.190;19.178;2022-09-27T11:09:49;3.17;;;2.20;;
41101;SDS011;26845;50.190;19.178;2022-09-27T11:12:19;2.08;;;1.90;;
41101;SDS011;26845;50.190;19.178;2022-09-27T11:15:03;2.35;;;2.15;;
41101;SDS011;26845;50.190;19.178;2022-09-27T11:23:22;4.10;;;2.75;;
41101;SDS011;26845;50.190;19.178;2022-09-27T11:40:29;3.77;;;3.12;;
41101;SDS011;26845;50.190;19.178;2022-09-27T11:43:38;5.42;;;3.33;;
41101;SDS011;26845;50.190;19.178;2022-09-27T11:51:55;7.20;;;3.60;;
41101;SDS011;26845;50.190;19.178;2022-09-27T11:58:05;4.25;;;3.10;;
41101;SDS011;26845;50.190;19.178;2022-09-27T12:01:05;4.35;;;3.33;;
41101;SDS011;26845;50.190;19.178;2022-09-27T12:09:22;5.03;;;2.45;;
41101;SDS011;26845;50.190;19.178;2022-09-27T12:12:14;3.08;;;2.67;;
41101;SDS011;26845;50.190;19.178;2022-09-27T12:15:00;4.65;;;2.60;;
41101;SDS011;26845;50.190;19.178;2022-09-27T12:17:32;3.02;;;2.60;;
41101;SDS011;26845;50.190;19.178;2022-09-27T12:20:05;3.70;;;2.05;;
41101;SDS011;26845;50.190;19.178;2022-09-27T12:25:21;4.40;;;2.37;;
41101;SDS011;26845;50.190;19.178;2022-09-27T12:27:53;5.05;;;2.55;;
41101;SDS011;26845;50.190;19.178;2022-09-27T12:30:23;4.83;;;2.80;;
41101;SDS011;26845;50.190;19.178;2022-09-27T12:33:00;5.70;;;3.17;;
41101;SDS011;26845;50.190;19.178;2022-09-27T12:35:32;4.53;;;3.30;;
41101;SDS011;26845;50.190;19.178;2022-09-27T12:38:12;6.20;;;3.00;;
41101;SDS011;26845;50.190;19.178;2022-09-27T12:40:44;4.60;;;2.87;;
41101;SDS011;26845;50.190;19.178;2022-09-27T12:43:17;4.50;;;2.90;;
41101;SDS011;26845;50.190;19.178;2022-09-27T12:49:09;5.00;;;3.25;;
41101;SDS011;26845;50.190;19.178;2022-09-27T12:52:04;4.75;;;3.67;;
41101;SDS011;26845;50.190;19.178;2022-09-27T12:55:22;6.17;;;3.40;;
41101;SDS011;26845;50.190;19.178;2022-09-27T12:57:39;6.62;;;3.47;;
41101;SDS011;26845;50.190;19.178;2022-09-27T13:00:18;5.42;;;3.92;;
41101;SDS011;26845;50.190;19.178;2022-09-27T13:11:59;6.05;;;4.30;;
41101;SDS011;26845;50.190;19.178;2022-09-27T13:17:32;9.55;;;5.05;;
41101;SDS011;26845;50.190;19.178;2022-09-27T13:23:47;7.80;;;4.22;;
41101;SDS011;26845;50.190;19.178;2022-09-27T13:41:31;5.60;;;3.22;;
41101;SDS011;26845;50.190;19.178;2022-09-27T13:46:58;6.12;;;3.60;;
41101;SDS011;26845;50.190;19.178;2022-09-27T13:49:38;6.67;;;4.22;;
41101;SDS011;26845;50.190;19.178;2022-09-27T13:54:58;7.35;;;4.55;;
41101;SDS011;26845;50.190;19.178;2022-09-27T14:00:38;11.78;;;6.15;;
41101;SDS011;26845;50.190;19.178;2022-09-27T14:05:46;8.43;;;5.45;;
41101;SDS011;26845;50.190;19.178;2022-09-27T14:11:38;6.80;;;4.60;;
41101;SDS011;26845;50.190;19.178;2022-09-27T14:14:12;6.67;;;4.62;;
41101;SDS011;26845;50.190;19.178;2022-09-27T14:16:45;5.35;;;4.78;;
41101;SDS011;26845;50.190;19.178;2022-09-27T14:19:16;9.65;;;4.70;;
41101;SDS011;26845;50.190;19.178;2022-09-27T14:21:51;6.90;;;5.33;;
41101;SDS011;26845;50.190;19.178;2022-09-27T14:32:26;8.23;;;5.50;;
41101;SDS011;26845;50.190;19.178;2022-09-27T14:35:02;5.33;;;3.25;;
41101;SDS011;26845;50.190;19.178;2022-09-27T14:38:04;3.10;;;2.80;;
41101;SDS011;26845;50.190;19.178;2022-09-27T14:40:41;3.77;;;2.42;;
41101;SDS011;26845;50.190;19.178;2022-09-27T14:43:25;3.33;;;2.08;;
41101;SDS011;26845;50.190;19.178;2022-09-27T14:45:52;3.27;;;1.85;;
41101;SDS011;26845;50.190;19.178;2022-09-27T14:48:31;5.90;;;2.85;;
41101;SDS011;26845;50.190;19.178;2022-09-27T14:51:01;6.03;;;2.95;;
41101;SDS011;26845;50.190;19.178;2022-09-27T14:53:40;6.28;;;4.35;;
41101;SDS011;26845;50.190;19.178;2022-09-27T14:56:17;8.85;;;6.12;;
41101;SDS011;26845;50.190;19.178;2022-09-27T14:58:47;8.53;;;5.65;;
41101;SDS011;26845;50.190;19.178;2022-09-27T15:01:21;10.03;;;6.25;;
41101;SDS011;26845;50.190;19.178;2022-09-27T15:03:48;10.43;;;5.70;;
41101;SDS011;26845;50.190;19.178;2022-09-27T15:06:15;19.12;;;8.00;;
41101;SDS011;26845;50.190;19.178;2022-09-27T15:08:41;14.30;;;6.85;;
41101;SDS011;26845;50.190;19.178;2022-09-27T15:11:09;9.28;;;5.05;;
41101;SDS011;26845;50.190;19.178;2022-09-27T15:13:35;11.30;;;5.35;;
41101;SDS011;26845;50.190;19.178;2022-09-27T15:16:09;12.68;;;5.90;;
41101;SDS011;26845;50.190;19.178;2022-09-27T15:18:41;11.78;;;5.45;;
41101;SDS011;26845;50.190;19.178;2022-09-27T15:21:29;14.38;;;7.30;;
41101;SDS011;26845;50.190;19.178;2022-09-27T15:23:43;14.43;;;6.92;;
41101;SDS011;26845;50.190;19.178;2022-09-27T15:28:49;12.30;;;6.30;;
41101;SDS011;26845;50.190;19.178;2022-09-27T15:31:17;13.03;;;5.87;;
41101;SDS011;26845;50.190;19.178;2022-09-27T15:33:58;7.05;;;4.30;;
41101;SDS011;26845;50.190;19.178;2022-09-27T15:39:24;6.78;;;4.42;;
41101;SDS011;26845;50.190;19.178;2022-09-27T15:52:55;6.72;;;4.75;;
41101;SDS011;26845;50.190;19.178;2022-09-27T15:55:25;6.33;;;4.35;;
41101;SDS011;26845;50.190;19.178;2022-09-27T15:57:58;5.35;;;4.05;;
41101;SDS011;26845;50.190;19.178;2022-09-27T16:00:26;8.95;;;4.67;;
41101;SDS011;26845;50.190;19.178;2022-09-27T16:02:53;5.42;;;3.75;;
41101;SDS011;26845;50.190;19.178;2022-09-27T16:05:19;6.40;;;4.58;;
41101;SDS011;26845;50.190;19.178;2022-09-27T16:07:48;8.38;;;4.60;;
41101;SDS011;26845;50.190;19.178;2022-09-27T16:10:18;7.87;;;5.10;;
41101;SDS011;26845;50.190;19.178;2022-09-27T16:12:47;5.37;;;4.28;;
41101;SDS011;26845;50.190;19.178;2022-09-27T16:15:15;6.53;;;4.28;;
41101;SDS011;26845;50.190;19.178;2022-09-27T16:17:41;7.45;;;4.95;;
41101;SDS011;26845;50.190;19.178;2022-09-27T16:20:18;10.95;;;5.17;;
41101;SDS011;26845;50.190;19.178;2022-09-27T16:22:48;7.72;;;4.95;;
41101;SDS011;26845;50.190;19.178;2022-09-27T16:25:13;9.43;;;4.78;;
41101;SDS011;26845;50.190;19.178;2022-09-27T16:27:39;7.45;;;5.53;;
41101;SDS011;26845;50.190;19.178;2022-09-27T16:30:05;7.80;;;4.62;;
41101;SDS011;26845;50.190;19.178;2022-09-27T16:32:32;12.03;;;5.45;;
41101;SDS011;26845;50.190;19.178;2022-09-27T16:35:00;7.50;;;6.03;;
41101;SDS011;26845;50.190;19.178;2022-09-27T16:37:27;10.35;;;6.78;;
41101;SDS011;26845;50.190;19.178;2022-09-27T16:39:54;10.53;;;6.97;;
41101;SDS011;26845;50.190;19.178;2022-09-27T16:42:22;11.63;;;7.78;;
41101;SDS011;26845;50.190;19.178;2022-09-27T16:44:47;10.70;;;7.72;;
41101;SDS011;26845;50.190;19.178;2022-09-27T16:47:14;14.30;;;9.18;;
41101;SDS011;26845;50.190;19.178;2022-09-27T16:49:40;15.78;;;10.28;;
41101;SDS011;26845;50.190;19.178;2022-09-27T16:52:24;11.53;;;9.35;;
41101;SDS011;26845;50.190;19.178;2022-09-27T16:54:50;11.65;;;9.38;;
41101;SDS011;26845;50.190;19.178;2022-09-27T16:57:16;14.38;;;10.78;;
41101;SDS011;26845;50.190;19.178;2022-09-27T16:59:42;14.80;;;10.90;;
41101;SDS011;26845;50.190;19.178;2022-09-27T17:02:08;16.67;;;10.90;;
41101;SDS011;26845;50.190;19.178;2022-09-27T17:04:33;14.47;;;11.03;;
41101;SDS011;26845;50.190;19.178;2022-09-27T17:06:59;14.85;;;12.15;;
41101;SDS011;26845;50.190;19.178;2022-09-27T17:09:25;16.85;;;12.60;;
41101;SDS011;26845;50.190;19.178;2022-09-27T17:11:50;16.25;;;12.65;;
41101;SDS011;26845;50.190;19.178;2022-09-27T17:14:16;16.95;;;12.37;;
41101;SDS011;26845;50.190;19.178;2022-09-27T17:16:43;14.00;;;10.28;;
41101;SDS011;26845;50.190;19.178;2022-09-27T17:19:11;14.47;;;9.98;;
41101;SDS011;26845;50.190;19.178;2022-09-27T17:21:41;15.53;;;12.03;;
41101;SDS011;26845;50.190;19.178;2022-09-27T17:24:10;15.43;;;12.80;;
41101;SDS011;26845;50.190;19.178;2022-09-27T17:26:36;16.67;;;13.58;;
41101;SDS011;26845;50.190;19.178;2022-09-27T17:29:02;17.98;;;13.78;;
41101;SDS011;26845;50.190;19.178;2022-09-27T17:31:28;15.43;;;12.68;;
41101;SDS011;26845;50.190;19.178;2022-09-27T17:33:57;18.42;;;13.32;;
41101;SDS011;26845;50.190;19.178;2022-09-27T17:36:24;15.28;;;12.28;;
41101;SDS011;26845;50.190;19.178;2022-09-27T17:38:56;13.85;;;11.53;;
41101;SDS011;26845;50.190;19.178;2022-09-27T17:41:24;16.50;;;13.25;;
41101;SDS011;26845;50.190;19.178;2022-09-27T17:43:52;16.50;;;12.50;;
41101;SDS011;26845;50.190;19.178;2022-09-27T17:46:24;15.05;;;12.47;;
41101;SDS011;26845;50.190;19.178;2022-09-27T17:48:56;17.17;;;12.28;;
41101;SDS011;26845;50.190;19.178;2022-09-27T17:51:44;19.23;;;13.90;;
41101;SDS011;26845;50.190;19.178;2022-09-27T17:54:11;18.95;;;14.50;;
41101;SDS011;26845;50.190;19.178;2022-09-27T17:56:38;17.73;;;13.95;;
41101;SDS011;26845;50.190;19.178;2022-09-27T17:59:06;17.67;;;13.72;;
41101;SDS011;26845;50.190;19.178;2022-09-27T18:01:34;18.27;;;13.32;;
41101;SDS011;26845;50.190;19.178;2022-09-27T18:04:02;14.60;;;12.03;;
41101;SDS011;26845;50.190;19.178;2022-09-27T18:06:33;17.37;;;13.13;;
41101;SDS011;26845;50.190;19.178;2022-09-27T18:08:58;17.77;;;12.35;;
41101;SDS011;26845;50.190;19.178;2022-09-27T18:11:26;16.90;;;12.60;;
41101;SDS011;26845;50.190;19.178;2022-09-27T18:13:57;21.35;;;14.50;;
41101;SDS011;26845;50.190;19.178;2022-09-27T18:16:24;18.37;;;14.05;;
41101;SDS011;26845;50.190;19.178;2022-09-27T18:19:00;17.02;;;12.80;;
41101;SDS011;26845;50.190;19.178;2022-09-27T18:21:28;16.93;;;13.28;;
41101;SDS011;26845;50.190;19.178;2022-09-27T18:23:56;16.45;;;12.30;;
41101;SDS011;26845;50.190;19.178;2022-09-27T18:26:24;16.75;;;12.90;;
41101;SDS011;26845;50.190;19.178;2022-09-27T18:29:00;15.25;;;12.00;;
41101;SDS011;26845;50.190;19.178;2022-09-27T18:31:32;17.23;;;11.83;;
41101;SDS011;26845;50.190;19.178;2022-09-27T18:33:58;16.73;;;10.82;;
41101;SDS011;26845;50.190;19.178;2022-09-27T18:36:24;15.28;;;10.45;;
41101;SDS011;26845;50.190;19.178;2022-09-27T18:38:56;17.73;;;12.50;;
41101;SDS011;26845;50.190;19.178;2022-09-27T18:41:22;13.58;;;10.00;;
41101;SDS011;26845;50.190;19.178;2022-09-27T18:43:51;14.38;;;9.40;;
41101;SDS011;26845;50.190;19.178;2022-09-27T18:46:21;17.12;;;9.63;;
41101;SDS011;26845;50.190;19.178;2022-09-27T18:48:49;13.13;;;9.68;;
41101;SDS011;26845;50.190;19.178;2022-09-27T18:51:17;12.90;;;9.10;;
41101;SDS011;26845;50.190;19.178;2022-09-27T18:53:46;13.72;;;9.25;;
41101;SDS011;26845;50.190;19.178;2022-09-27T18:56:13;12.45;;;8.95;;
41101;SDS011;26845;50.190;19.178;2022-09-27T19:01:15;12.53;;;7.92;;
41101;SDS011;26845;50.190;19.178;2022-09-27T19:03:41;12.68;;;8.88;;
41101;SDS011;26845;50.190;19.178;2022-09-27T19:06:12;14.70;;;9.60;;
41101;SDS011;26845;50.190;19.178;2022-09-27T19:08:40;16.25;;;10.18;;
41101;SDS011;26845;50.190;19.178;2022-09-27T19:11:08;13.98;;;10.28;;
41101;SDS011;26845;50.190;19.178;2022-09-27T19:13:37;13.50;;;10.18;;
41101;SDS011;26845;50.190;19.178;2022-09-27T19:16:03;16.93;;;11.30;;
41101;SDS011;26845;50.190;19.178;2022-09-27T19:18:30;16.50;;;11.57;;
41101;SDS011;26845;50.190;19.178;2022-09-27T19:21:04;18.10;;;11.20;;
41101;SDS011;26845;50.190;19.178;2022-09-27T19:23:34;17.55;;;10.85;;
41101;SDS011;26845;50.190;19.178;2022-09-27T19:26:01;17.48;;;10.32;;
41101;SDS011;26845;50.190;19.178;2022-09-27T19:28:32;17.35;;;10.38;;
41101;SDS011;26845;50.190;19.178;2022-09-27T19:31:08;18.10;;;13.30;;
41101;SDS011;26845;50.190;19.178;2022-09-27T19:33:33;18.85;;;12.82;;
41101;SDS011;26845;50.190;19.178;2022-09-27T19:36:03;16.17;;;10.80;;
41101;SDS011;26845;50.190;19.178;2022-09-27T19:38:32;17.73;;;11.85;;
41101;SDS011;26845;50.190;19.178;2022-09-27T19:41:00;20.95;;;12.07;;
41101;SDS011;26845;50.190;19.178;2022-09-27T19:43:27;18.73;;;11.97;;
41101;SDS011;26845;50.190;19.178;2022-09-27T19:45:52;16.62;;;12.53;;
41101;SDS011;26845;50.190;19.178;2022-09-27T19:48:18;17.35;;;12.58;;
41101;SDS011;26845;50.190;19.178;2022-09-27T19:50:54;18.35;;;14.10;;
41101;SDS011;26845;50.190;19.178;2022-09-27T19:53:22;19.48;;;13.38;;
41101;SDS011;26845;50.190;19.178;2022-09-27T19:56:23;18.87;;;11.88;;
41101;SDS011;26845;50.190;19.178;2022-09-27T19:58:29;17.25;;;11.93;;
41101;SDS011;26845;50.190;19.178;2022-09-27T20:00:58;18.42;;;11.68;;
41101;SDS011;26845;50.190;19.178;2022-09-27T20:03:33;19.12;;;10.48;;
41101;SDS011;26845;50.190;19.178;2022-09-27T20:06:02;14.98;;;10.10;;
41101;SDS011;26845;50.190;19.178;2022-09-27T20:08:30;16.57;;;10.68;;
41101;SDS011;26845;50.190;19.178;2022-09-27T20:10:57;14.80;;;10.50;;
41101;SDS011;26845;50.190;19.178;2022-09-27T20:13:27;16.82;;;11.00;;
41101;SDS011;26845;50.190;19.178;2022-09-27T20:16:11;14.05;;;10.30;;
41101;SDS011;26845;50.190;19.178;2022-09-27T20:18:40;16.42;;;10.70;;
41101;SDS011;26845;50.190;19.178;2022-09-27T20:21:12;13.65;;;8.98;;
41101;SDS011;26845;50.190;19.178;2022-09-27T20:23:39;16.35;;;10.35;;
41101;SDS011;26845;50.190;19.178;2022-09-27T20:26:06;14.43;;;9.53;;
41101;SDS011;26845;50.190;19.178;2022-09-27T20:28:39;14.63;;;10.13;;
41101;SDS011;26845;50.190;19.178;2022-09-27T20:31:09;15.40;;;9.80;;
41101;SDS011;26845;50.190;19.178;2022-09-27T20:33:36;13.95;;;10.78;;
41101;SDS011;26845;50.190;19.178;2022-09-27T20:36:05;14.00;;;9.33;;
41101;SDS011;26845;50.190;19.178;2022-09-27T20:38:45;17.37;;;10.18;;
41101;SDS011;26845;50.190;19.178;2022-09-27T20:41:17;13.35;;;8.90;;
41101;SDS011;26845;50.190;19.178;2022-09-27T20:46:15;16.65;;;10.40;;
41101;SDS011;26845;50.190;19.178;2022-09-27T20:48:43;13.20;;;10.25;;
41101;SDS011;26845;50.190;19.178;2022-09-27T20:51:11;17.52;;;10.35;;
41101;SDS011;26845;50.190;19.178;2022-09-27T20:53:41;14.53;;;10.20;;
41101;SDS011;26845;50.190;19.178;2022-09-27T20:56:28;16.17;;;9.13;;
41101;SDS011;26845;50.190;19.178;2022-09-27T20:59:01;15.25;;;10.25;;
41101;SDS011;26845;50.190;19.178;2022-09-27T21:01:30;15.90;;;9.63;;
41101;SDS011;26845;50.190;19.178;2022-09-27T21:03:58;13.70;;;9.90;;
41101;SDS011;26845;50.190;19.178;2022-09-27T21:06:26;16.23;;;10.10;;
41101;SDS011;26845;50.190;19.178;2022-09-27T21:08:54;15.10;;;9.68;;
41101;SDS011;26845;50.190;19.178;2022-09-27T21:11:20;15.53;;;10.30;;
41101;SDS011;26845;50.190;19.178;2022-09-27T21:13:46;17.92;;;9.90;;
41101;SDS011;26845;50.190;19.178;2022-09-27T21:16:15;16.05;;;9.40;;
41101;SDS011;26845;50.190;19.178;2022-09-27T21:18:43;10.23;;;7.58;;
41101;SDS011;26845;50.190;19.178;2022-09-27T21:21:12;14.25;;;8.88;;
41101;SDS011;26845;50.190;19.178;2022-09-27T21:23:39;16.27;;;10.65;;
41101;SDS011;26845;50.190;19.178;2022-09-27T21:26:11;13.83;;;9.80;;
41101;SDS011;26845;50.190;19.178;2022-09-27T21:31:11;12.43;;;9.70;;
41101;SDS011;26845;50.190;19.178;2022-09-27T21:33:45;14.03;;;10.00;;
41101;SDS011;26845;50.190;19.178;2022-09-27T21:36:12;16.00;;;10.45;;
41101;SDS011;26845;50.190;19.178;2022-09-27T21:38:38;15.35;;;10.10;;
41101;SDS011;26845;50.190;19.178;2022-09-27T21:41:05;14.38;;;9.85;;
41101;SDS011;26845;50.190;19.178;2022-09-27T21:43:39;18.57;;;10.98;;
41101;SDS011;26845;50.190;19.178;2022-09-27T21:46:07;16.85;;;10.23;;
41101;SDS011;26845;50.190;19.178;2022-09-27T21:48:37;16.90;;;11.28;;
41101;SDS011;26845;50.190;19.178;2022-09-27T21:51:09;16.32;;;9.95;;
41101;SDS011;26845;50.190;19.178;2022-09-27T21:53:38;14.68;;;10.45;;
41101;SDS011;26845;50.190;19.178;2022-09-27T21:56:07;16.90;;;11.57;;
41101;SDS011;26845;50.190;19.178;2022-09-27T21:58:35;18.23;;;11.68;;
41101;SDS011;26845;50.190;19.178;2022-09-27T22:03:42;15.68;;;10.13;;
41101;SDS011;26845;50.190;19.178;2022-09-27T22:06:13;18.32;;;10.75;;
41101;SDS011;26845;50.190;19.178;2022-09-27T22:08:45;16.42;;;12.23;;
41101;SDS011;26845;50.190;19.178;2022-09-27T22:11:13;17.52;;;11.53;;
41101;SDS011;26845;50.190;19.178;2022-09-27T22:13:42;18.70;;;12.40;;
41101;SDS011;26845;50.190;19.178;2022-09-27T22:16:08;16.00;;;11.73;;
41101;SDS011;26845;50.190;19.178;2022-09-27T22:18:38;18.42;;;11.95;;
41101;SDS011;26845;50.190;19.178;2022-09-27T22:21:10;18.32;;;11.95;;
41101;SDS011;26845;50.190;19.178;2022-09-27T22:23:39;14.33;;;11.18;;
41101;SDS011;26845;50.190;19.178;2022-09-27T22:26:12;14.85;;;11.50;;
41101;SDS011;26845;50.190;19.178;2022-09-27T22:28:44;22.48;;;13.32;;
41101;SDS011;26845;50.190;19.178;2022-09-27T22:31:11;18.87;;;12.75;;
41101;SDS011;26845;50.190;19.178;2022-09-27T22:33:39;19.40;;;13.18;;
41101;SDS011;26845;50.190;19.178;2022-09-27T22:36:06;20.23;;;12.80;;
41101;SDS011;26845;50.190;19.178;2022-09-27T22:38:32;22.02;;;12.98;;
41101;SDS011;26845;50.190;19.178;2022-09-27T22:40:59;19.55;;;13.22;;
41101;SDS011;26845;50.190;19.178;2022-09-27T22:43:26;19.55;;;13.08;;
41101;SDS011;26845;50.190;19.178;2022-09-27T22:45:53;22.02;;;12.82;;
41101;SDS011;26845;50.190;19.178;2022-09-27T22:48:20;16.35;;;12.05;;
41101;SDS011;26845;50.190;19.178;2022-09-27T22:50:46;17.85;;;12.93;;
41101;SDS011;26845;50.190;19.178;2022-09-27T22:53:12;18.27;;;12.90;;
41101;SDS011;26845;50.190;19.178;2022-09-27T22:55:38;17.32;;;13.08;;
41101;SDS011;26845;50.190;19.178;2022-09-27T22:58:04;16.90;;;12.18;;
41101;SDS011;26845;50.190;19.178;2022-09-27T23:00:30;21.70;;;14.83;;
41101;SDS011;26845;50.190;19.178;2022-09-27T23:02:58;21.75;;;14.43;;
41101;SDS011;26845;50.190;19.178;2022-09-27T23:05:25;17.50;;;12.60;;
41101;SDS011;26845;50.190;19.178;2022-09-27T23:07:51;19.27;;;13.30;;
41101;SDS011;26845;50.190;19.178;2022-09-27T23:10:18;18.30;;;11.95;;
41101;SDS011;26845;50.190;19.178;2022-09-27T23:12:48;13.85;;;11.30;;
41101;SDS011;26845;50.190;19.178;2022-09-27T23:15:17;19.70;;;13.25;;
41101;SDS011;26845;50.190;19.178;2022-09-27T23:17:43;16.40;;;12.05;;
41101;SDS011;26845;50.190;19.178;2022-09-27T23:20:09;19.48;;;13.53;;
41101;SDS011;26845;50.190;19.178;2022-09-27T23:22:37;24.95;;;13.98;;
41101;SDS011;26845;50.190;19.178;2022-09-27T23:25:02;20.90;;;14.38;;
41101;SDS011;26845;50.190;19.178;2022-09-27T23:27:32;18.75;;;13.25;;
41101;SDS011;26845;50.190;19.178;2022-09-27T23:30:11;21.20;;;13.28;;
41101;SDS011;26845;50.190;19.178;2022-09-27T23:32:36;15.70;;;12.37;;
41101;SDS011;26845;50.190;19.178;2022-09-27T23:35:01;20.95;;;11.75;;
41101;SDS011;26845;50.190;19.178;2022-09-27T23:37:27;18.95;;;12.80;;
41101;SDS011;26845;50.190;19.178;2022-09-27T23:39:53;18.23;;;12.33;;
41101;SDS011;26845;50.190;19.178;2022-09-27T23:42:20;16.80;;;12.28;;
41101;SDS011;26845;50.190;19.178;2022-09-27T23:44:46;18.10;;;11.85;;
41101;SDS011;26845;50.190;19.178;2022-09-27T23:47:11;25.02;;;12.28;;
41101;SDS011;26845;50.190;19.178;2022-09-27T23:49:37;19.17;;;12.18;;
41101;SDS011;26845;50.190;19.178;2022-09-27T23:52:03;18.77;;;13.03;;
41101;SDS011;26845;50.190;19.178;2022-09-27T23:54:30;16.70;;;10.80;;
41101;SDS011;26845;50.190;19.178;2022-09-27T23:56:57;17.32;;;12.40;;
41101;SDS011;26845;50.190;19.178;2022-09-27T23:59:23;14.38;;;10.78;;
